createdAt,value
2018-12-08T00:01:29.758Z,97928.25
2018-12-08T00:03:58.022Z,97931.48
2018-12-08T00:06:26.343Z,97936.15
2018-12-08T00:08:54.637Z,97941.17
2018-12-08T00:11:22.966Z,97949.11
2018-12-08T00:13:51.600Z,97955.16
2018-12-08T00:16:19.875Z,97957.72
2018-12-08T00:18:48.557Z,97952.97
2018-12-08T00:21:16.838Z,97969.23
2018-12-08T00:23:45.375Z,97975.64
2018-12-08T00:26:14.050Z,97962.95
2018-12-08T00:28:42.392Z,97982.88
2018-12-08T00:31:28.037Z,97987.83
2018-12-08T00:33:56.289Z,97993.38
2018-12-08T00:36:24.931Z,97997.85
2018-12-08T00:38:53.175Z,98002.72
2018-12-08T00:41:21.506Z,97999.73
2018-12-08T00:43:49.765Z,98018.63
2018-12-08T00:46:18.001Z,98011.43
2018-12-08T00:48:46.716Z,98014.98
2018-12-08T00:51:15.018Z,98008.49
2018-12-08T00:53:43.277Z,98022.47
2018-12-08T00:56:11.995Z,98028.24
2018-12-08T00:58:40.288Z,98028.51
2018-12-08T01:01:08.671Z,98041.66
2018-12-08T01:03:36.973Z,98039.46
2018-12-08T01:06:05.495Z,98046.58
2018-12-08T01:08:33.832Z,98036.08
2018-12-08T01:11:02.448Z,98052.35
2018-12-08T01:13:30.776Z,98055.22
2018-12-08T01:16:00.647Z,98069.59
2018-12-08T01:18:28.925Z,98067.22
2018-12-08T01:20:57.175Z,98068.83
2018-12-08T01:23:26.225Z,98067.88
2018-12-08T01:25:54.845Z,98079.02
2018-12-08T01:28:23.080Z,98077.05
2018-12-08T01:30:51.739Z,98081.27
2018-12-08T01:33:20.289Z,98080.81
2018-12-08T01:35:49.238Z,98072.52
2018-12-08T01:38:17.518Z,98074.44
2018-12-08T01:40:46.278Z,98073.27
2018-12-08T01:43:14.527Z,98076.36
2018-12-08T01:45:43.114Z,98081.48
2018-12-08T01:48:11.289Z,98059.73
2018-12-08T01:50:39.772Z,98069.70
2018-12-08T01:53:09.094Z,98065.98
2018-12-08T01:55:37.606Z,98068.23
2018-12-08T01:58:06.383Z,98064.70
2018-12-08T02:00:35.897Z,98068.73
2018-12-08T02:03:05.102Z,98076.21
2018-12-08T02:05:33.890Z,98068.88
2018-12-08T02:08:02.622Z,98076.84
2018-12-08T02:10:32.188Z,98071.54
2018-12-08T02:13:00.899Z,98078.31
2018-12-08T02:15:29.455Z,98083.61
2018-12-08T02:17:57.871Z,98082.41
2018-12-08T02:20:26.501Z,98066.88
2018-12-08T02:22:54.903Z,98078.76
2018-12-08T02:25:23.305Z,98067.97
2018-12-08T02:27:52.480Z,98077.75
2018-12-08T02:30:21.296Z,98081.14
2018-12-08T02:32:51.595Z,98079.22
2018-12-08T02:35:20.563Z,98085.41
2018-12-08T02:37:49.103Z,98073.82
2018-12-08T02:40:17.615Z,98087.51
2018-12-08T02:42:46.203Z,98085.52
2018-12-08T02:45:14.475Z,98083.13
2018-12-08T02:47:42.801Z,98080.76
2018-12-08T02:50:11.284Z,98082.30
2018-12-08T02:52:41.169Z,98085.95
2018-12-08T02:55:10.921Z,98088.59
2018-12-08T02:57:39.494Z,98094.34
2018-12-08T03:00:08.648Z,98097.15
2018-12-08T03:02:37.193Z,98088.76
2018-12-08T03:05:09.086Z,98083.64
2018-12-08T03:07:37.553Z,98090.69
2018-12-08T03:10:06.393Z,98088.66
2018-12-08T03:12:34.886Z,98090.73
2018-12-08T03:15:03.354Z,98085.45
2018-12-08T03:17:31.884Z,98082.27
2018-12-08T03:20:00.515Z,98091.22
2018-12-08T03:22:29.231Z,98099.11
2018-12-08T03:24:57.766Z,98094.56
2018-12-08T03:27:26.630Z,98099.09
2018-12-08T03:29:54.871Z,98100.56
2018-12-08T03:32:23.408Z,98103.47
2018-12-08T03:34:51.777Z,98102.38
2018-12-08T03:37:20.106Z,98104.45
2018-12-08T03:39:48.601Z,98104.58
2018-12-08T03:42:16.949Z,98111.34
2018-12-08T03:44:45.201Z,98104.50
2018-12-08T03:47:13.517Z,98101.39
2018-12-08T03:49:41.803Z,98084.34
2018-12-08T03:52:10.099Z,98085.94
2018-12-08T03:57:18.606Z,98091.05
2018-12-08T03:59:46.924Z,98092.73
2018-12-08T04:02:15.464Z,98087.27
2018-12-08T04:04:44.762Z,98091.39
2018-12-08T04:07:13.933Z,98096.32
2018-12-08T04:09:42.358Z,98096.05
2018-12-08T04:12:10.831Z,98096.77
2018-12-08T04:14:40.330Z,98090.91
2018-12-08T04:17:09.732Z,98095.33
2018-12-08T04:19:38.926Z,98094.58
2018-12-08T04:22:07.818Z,98108.45
2018-12-08T04:24:38.136Z,98105.83
2018-12-08T04:27:06.770Z,98099.62
2018-12-08T04:29:34.957Z,98109.83
2018-12-08T04:32:03.473Z,98099.79
2018-12-08T04:34:31.749Z,98100.59
2018-12-08T04:37:00.653Z,98091.12
2018-12-08T04:39:28.929Z,98085.81
2018-12-08T04:41:57.216Z,98089.30
2018-12-08T04:44:26.428Z,98082.84
2018-12-08T04:49:35.138Z,98082.57
2018-12-08T04:52:03.740Z,98082.39
2018-12-08T04:54:32.307Z,98075.36
2018-12-08T04:57:00.657Z,98083.45
2018-12-08T04:59:29.009Z,98089.15
2018-12-08T05:01:57.798Z,98087.73
2018-12-08T05:04:26.080Z,98087.49
2018-12-08T05:06:54.679Z,98089.63
2018-12-08T05:09:23.930Z,98078.75
2018-12-08T05:11:52.740Z,98084.52
2018-12-08T05:14:21.013Z,98075.14
2018-12-08T05:16:49.607Z,98074.31
2018-12-08T05:19:19.313Z,98081.45
2018-12-08T05:21:48.088Z,98077.69
2018-12-08T05:24:18.250Z,98072.34
2018-12-08T05:26:47.728Z,98082.08
2018-12-08T05:29:16.685Z,98084.49
2018-12-08T05:31:45.124Z,98079.67
2018-12-08T05:34:14.504Z,98091.91
2018-12-08T05:36:42.972Z,98086.73
2018-12-08T05:39:11.521Z,98080.84
2018-12-08T05:41:39.766Z,98086.40
2018-12-08T05:44:08.103Z,98082.19
2018-12-08T05:46:36.419Z,98075.95
2018-12-08T05:49:05.857Z,98083.23
2018-12-08T05:51:34.093Z,98091.99
2018-12-08T05:54:02.380Z,98096.44
2018-12-08T05:56:30.710Z,98111.14
2018-12-08T05:58:59.028Z,98096.54
2018-12-08T06:01:27.855Z,98099.66
2018-12-08T06:03:57.489Z,98099.58
2018-12-08T06:06:26.400Z,98105.86
2018-12-08T06:08:55.026Z,98121.39
2018-12-08T06:11:23.302Z,98116.63
2018-12-08T06:13:51.580Z,98124.49
2018-12-08T06:16:19.773Z,98130.39
2018-12-08T06:18:48.106Z,98146.81
2018-12-08T06:21:16.740Z,98148.20
2018-12-08T06:23:44.963Z,98155.08
2018-12-08T06:26:20.312Z,98136.69
2018-12-08T06:28:53.237Z,98137.48
2018-12-08T06:31:21.904Z,98146.18
2018-12-08T06:33:50.457Z,98150.28
2018-12-08T06:36:18.792Z,98145.62
2018-12-08T06:38:47.264Z,98124.47
2018-12-08T06:41:16.490Z,98127.30
2018-12-08T06:43:44.739Z,98135.30
2018-12-08T06:46:13.044Z,98128.92
2018-12-08T06:48:42.747Z,98135.75
2018-12-08T06:51:11.783Z,98133.78
2018-12-08T06:53:40.286Z,98122.26
2018-12-08T06:56:08.462Z,98123.25
2018-12-08T06:58:36.908Z,98114.84
2018-12-08T07:01:05.235Z,98109.08
2018-12-08T07:03:33.512Z,98112.28
2018-12-08T07:06:01.953Z,98111.45
2018-12-08T07:08:30.381Z,98105.48
2018-12-08T07:10:59.192Z,98118.91
2018-12-08T07:13:27.493Z,98107.42
2018-12-08T07:15:55.748Z,98115.11
2018-12-08T07:18:26.259Z,98120.42
2018-12-08T07:20:54.990Z,98121.22
2018-12-08T07:23:23.835Z,98119.28
2018-12-08T07:25:52.332Z,98115.09
2018-12-08T07:28:21.390Z,98119.20
2018-12-08T07:30:49.888Z,98114.38
2018-12-08T07:33:18.434Z,98115.55
2018-12-08T07:35:46.807Z,98114.22
2018-12-08T07:38:15.353Z,98110.64
2018-12-08T07:40:43.875Z,98109.73
2018-12-08T07:43:12.201Z,98108.46
2018-12-08T07:45:40.515Z,98111.47
2018-12-08T07:48:09.893Z,98112.94
2018-12-08T07:50:38.547Z,98110.37
2018-12-08T07:53:06.813Z,98111.23
2018-12-08T07:55:35.383Z,98120.73
2018-12-08T07:58:03.586Z,98119.13
2018-12-08T08:00:32.073Z,98100.84
2018-12-08T08:03:01.065Z,98096.82
2018-12-08T08:05:29.538Z,98091.83
2018-12-08T08:07:58.067Z,98094.83
2018-12-08T08:10:29.409Z,98069.98
2018-12-08T08:12:58.007Z,98074.92
2018-12-08T08:15:26.698Z,98070.91
2018-12-08T08:17:55.187Z,98080.94
2018-12-08T08:20:23.503Z,98079.33
2018-12-08T08:22:52.860Z,98081.33
2018-12-08T08:25:22.227Z,98081.77
2018-12-08T08:27:51.370Z,98097.84
2018-12-08T08:30:19.751Z,98090.28
2018-12-08T08:32:48.065Z,98089.08
2018-12-08T08:35:16.379Z,98088.25
2018-12-08T08:37:44.953Z,98084.41
2018-12-08T08:40:14.443Z,98077.45
2018-12-08T08:42:42.973Z,98085.31
2018-12-08T08:45:11.551Z,98077.38
2018-12-08T08:47:39.872Z,98072.48
2018-12-08T08:50:10.898Z,98072.55
2018-12-08T08:52:46.873Z,98071.59
2018-12-08T08:55:15.157Z,98062.03
2018-12-08T08:57:43.795Z,98065.96
2018-12-08T09:00:14.826Z,98073.59
2018-12-08T09:02:43.117Z,98066.54
2018-12-08T09:05:12.241Z,98066.10
2018-12-08T09:07:41.110Z,98070.84
2018-12-08T09:10:11.203Z,98063.80
2018-12-08T09:12:39.470Z,98052.70
2018-12-08T09:15:08.598Z,98053.84
2018-12-08T09:17:38.091Z,98052.31
2018-12-08T09:20:10.313Z,98046.60
2018-12-08T09:22:39.347Z,98049.41
2018-12-08T09:25:09.330Z,98036.41
2018-12-08T09:27:39.152Z,98045.56
2018-12-08T09:30:10.976Z,98034.56
2018-12-08T09:32:40.383Z,98023.03
2018-12-08T09:35:08.812Z,98031.56
2018-12-08T09:37:37.052Z,98023.86
2018-12-08T09:40:07.490Z,98042.48
2018-12-08T09:42:37.136Z,98019.80
2018-12-08T09:45:06.107Z,98013.50
2018-12-08T09:47:34.877Z,98020.42
2018-12-08T09:50:04.865Z,98013.56
2018-12-08T09:52:33.170Z,98003.17
2018-12-08T09:55:01.513Z,98014.27
2018-12-08T09:57:29.822Z,97995.97
2018-12-08T09:59:58.750Z,98001.38
2018-12-08T10:02:27.098Z,98005.45
2018-12-08T10:04:57.140Z,97999.70
2018-12-08T10:07:25.625Z,98003.45
2018-12-08T10:09:54.209Z,98012.17
2018-12-08T10:12:22.608Z,98005.88
2018-12-08T10:14:51.478Z,98007.58
2018-12-08T10:17:20.705Z,98008.23
2018-12-08T10:19:49.024Z,98013.02
2018-12-08T10:22:17.563Z,98007.38
2018-12-08T10:24:47.386Z,97992.77
2018-12-08T10:27:16.613Z,97986.84
2018-12-08T10:29:45.297Z,97988.17
2018-12-08T10:32:14.018Z,98000.00
2018-12-08T10:34:43.458Z,97999.90
2018-12-08T10:37:13.211Z,98007.67
2018-12-08T10:39:41.521Z,98007.41
2018-12-08T10:42:10.201Z,97998.05
2018-12-08T10:44:38.551Z,97995.38
2018-12-08T10:47:07.097Z,98020.97
2018-12-08T10:49:35.366Z,98005.61
2018-12-08T10:52:04.063Z,97993.23
2018-12-08T10:54:34.864Z,97985.55
2018-12-08T10:57:03.995Z,97982.86
2018-12-08T10:59:33.231Z,97969.08
2018-12-08T11:02:02.592Z,97979.07
2018-12-08T11:04:33.537Z,97966.86
2018-12-08T11:07:01.960Z,98000.81
2018-12-08T11:09:31.076Z,97988.46
2018-12-08T11:11:59.833Z,97999.48
2018-12-08T11:14:29.144Z,97997.57
2018-12-08T11:16:59.650Z,97993.16
2018-12-08T11:19:28.159Z,98003.54
2018-12-08T11:21:56.681Z,97988.84
2018-12-08T11:24:25.207Z,97983.92
2018-12-08T11:26:53.682Z,97974.75
2018-12-08T11:29:22.405Z,97983.09
2018-12-08T11:31:50.800Z,97980.32
2018-12-08T11:34:19.528Z,97975.98
2018-12-08T11:36:49.653Z,97977.22
2018-12-08T11:39:18.059Z,97975.77
2018-12-08T11:41:46.905Z,97972.52
2018-12-08T11:44:15.764Z,97963.09
2018-12-08T11:46:44.379Z,97957.36
2018-12-08T11:49:12.958Z,97968.44
2018-12-08T11:51:41.176Z,97971.02
2018-12-08T11:54:09.869Z,97958.28
2018-12-08T11:56:38.258Z,97965.77
2018-12-08T11:59:06.690Z,97968.53
2018-12-08T12:01:35.001Z,97960.02
2018-12-08T12:04:03.337Z,97958.39
2018-12-08T12:06:32.303Z,97960.34
2018-12-08T12:09:01.568Z,97957.92
2018-12-08T12:11:31.306Z,97959.53
2018-12-08T12:13:59.706Z,97956.43
2018-12-08T12:16:28.262Z,97948.53
2018-12-08T12:18:56.551Z,97955.61
2018-12-08T12:21:25.026Z,97954.15
2018-12-08T12:23:53.517Z,97974.33
2018-12-08T12:26:22.736Z,97958.33
2018-12-08T12:28:51.062Z,97966.23
2018-12-08T12:31:19.487Z,97964.44
2018-12-08T12:33:47.787Z,97963.89
2018-12-08T12:36:16.301Z,97972.13
2018-12-08T12:38:45.987Z,97954.03
2018-12-08T12:41:14.501Z,97941.16
2018-12-08T12:43:42.968Z,97941.32
2018-12-08T12:46:13.013Z,97941.27
2018-12-08T12:48:41.476Z,97949.23
2018-12-08T12:51:10.176Z,97935.39
2018-12-08T12:53:39.301Z,97938.30
2018-12-08T12:56:08.709Z,97945.25
2018-12-08T12:58:38.371Z,97947.27
2018-12-08T13:01:07.874Z,97938.10
2018-12-08T13:03:36.772Z,97929.86
2018-12-08T13:06:05.997Z,97941.24
2018-12-08T13:08:35.986Z,97957.36
2018-12-08T13:11:05.097Z,97953.25
2018-12-08T13:13:34.129Z,97942.44
2018-12-08T13:16:02.433Z,97949.75
2018-12-08T13:18:31.064Z,97952.98
2018-12-08T13:20:59.708Z,97946.07
2018-12-08T13:23:29.902Z,97936.02
2018-12-08T13:25:59.623Z,97953.52
2018-12-08T13:28:28.386Z,97956.89
2018-12-08T13:30:56.957Z,97949.13
2018-12-08T13:33:25.801Z,97945.73
2018-12-08T13:36:02.205Z,97932.01
2018-12-08T13:38:31.270Z,97933.17
2018-12-08T13:40:59.855Z,97936.31
2018-12-08T13:43:28.991Z,97943.48
2018-12-08T13:45:58.293Z,97945.22
2018-12-08T13:48:28.993Z,97953.25
2018-12-08T13:50:58.093Z,97950.84
2018-12-08T13:53:26.747Z,97954.86
2018-12-08T13:55:55.884Z,97957.10
2018-12-08T13:58:24.235Z,97960.03
2018-12-08T14:00:52.536Z,97958.13
2018-12-08T14:03:21.675Z,97964.03
2018-12-08T14:05:50.122Z,97969.45
2018-12-08T14:08:19.414Z,97956.55
2018-12-08T14:10:48.188Z,97960.84
2018-12-08T14:13:17.084Z,97961.94
2018-12-08T14:15:45.843Z,97962.84
2018-12-08T14:18:14.406Z,97969.36
2018-12-08T14:20:43.522Z,97970.77
2018-12-08T14:23:12.091Z,97981.88
2018-12-08T14:25:41.029Z,97973.37
2018-12-08T14:28:09.630Z,97971.23
2018-12-08T14:30:37.933Z,97977.22
2018-12-08T14:33:06.858Z,97972.03
2018-12-08T14:35:35.095Z,97970.72
2018-12-08T14:38:03.971Z,97971.33
2018-12-08T14:40:32.600Z,97979.64
2018-12-08T14:43:01.905Z,97980.52
2018-12-08T14:45:30.254Z,97982.42
2018-12-08T14:47:59.200Z,97988.86
2018-12-08T14:50:27.605Z,97986.07
2018-12-08T14:52:55.956Z,97981.29
2018-12-08T14:55:24.848Z,97987.32
2018-12-08T14:57:53.179Z,97983.25
2018-12-08T15:00:22.257Z,97981.14
2018-12-08T15:02:51.388Z,97974.31
2018-12-08T15:05:19.661Z,97980.14
2018-12-08T15:07:47.917Z,97982.42
2018-12-08T15:10:16.193Z,97969.19
2018-12-08T15:12:45.006Z,97963.36
2018-12-08T15:15:13.344Z,97962.34
2018-12-08T15:17:41.634Z,97966.23
2018-12-08T15:20:10.142Z,97947.54
2018-12-08T15:22:38.908Z,97945.80
2018-12-08T15:25:09.142Z,97941.05
2018-12-08T15:27:37.579Z,97946.66
2018-12-08T15:30:08.347Z,97948.39
2018-12-08T15:32:36.614Z,97942.41
2018-12-08T15:35:08.039Z,97936.30
2018-12-08T15:37:36.377Z,97934.64
2018-12-08T15:40:06.017Z,97935.47
2018-12-08T15:42:34.341Z,97927.67
2018-12-08T15:45:03.352Z,97933.08
2018-12-08T15:47:31.651Z,97934.95
2018-12-08T15:49:59.935Z,97933.83
2018-12-08T15:52:29.015Z,97930.45
2018-12-08T15:54:57.527Z,97919.41
2018-12-08T15:57:25.860Z,97924.16
2018-12-08T15:59:55.345Z,97925.94
2018-12-08T16:02:24.189Z,97939.07
2018-12-08T16:04:52.592Z,97919.20
2018-12-08T16:07:21.149Z,97923.25
2018-12-08T16:09:49.423Z,97932.22
2018-12-08T16:12:17.699Z,97924.66
2018-12-08T16:14:46.348Z,97923.84
2018-12-08T16:17:15.818Z,97921.48
2018-12-08T16:19:44.379Z,97911.97
2018-12-08T16:22:12.694Z,97908.95
2018-12-08T16:24:41.366Z,97927.17
2018-12-08T16:27:09.583Z,97930.45
2018-12-08T16:29:38.879Z,97922.76
2018-12-08T16:32:07.764Z,97916.89
2018-12-08T16:34:36.139Z,97931.67
2018-12-08T16:37:04.500Z,97931.27
2018-12-08T16:39:33.067Z,97921.23
2018-12-08T16:42:02.207Z,97922.05
2018-12-08T16:44:30.869Z,97918.20
2018-12-08T16:46:59.161Z,97920.53
2018-12-08T16:49:28.053Z,97907.80
2018-12-08T16:51:56.847Z,97904.70
2018-12-08T16:54:25.418Z,97905.40
2018-12-08T16:56:53.733Z,97903.17
2018-12-08T16:59:23.460Z,97888.20
2018-12-08T17:01:53.893Z,97897.27
2018-12-08T17:04:22.900Z,97888.05
2018-12-08T17:06:51.193Z,97882.55
2018-12-08T17:09:19.439Z,97878.34
2018-12-08T17:11:47.748Z,97882.33
2018-12-08T17:14:16.373Z,97890.75
2018-12-08T17:16:45.815Z,97882.71
2018-12-08T17:19:15.381Z,97870.41
2018-12-08T17:21:43.719Z,97868.45
2018-12-08T17:24:12.160Z,97865.23
2018-12-08T17:26:41.523Z,97858.16
2018-12-08T17:29:09.852Z,97851.05
2018-12-08T17:31:38.689Z,97843.89
2018-12-08T17:34:06.916Z,97844.25
2018-12-08T17:36:35.787Z,97836.44
2018-12-08T17:39:06.261Z,97831.95
2018-12-08T17:41:35.759Z,97829.40
2018-12-08T17:44:05.144Z,97825.97
2018-12-08T17:46:33.493Z,97812.95
2018-12-08T17:49:02.105Z,97800.88
2018-12-08T17:51:31.181Z,97808.05
2018-12-08T17:54:02.071Z,97795.97
2018-12-08T17:56:30.989Z,97804.78
2018-12-08T17:58:59.784Z,97779.09
2018-12-08T18:01:28.409Z,97779.64
2018-12-08T18:03:57.894Z,97774.30
2018-12-08T18:06:26.190Z,97766.50
2018-12-08T18:08:55.122Z,97764.94
2018-12-08T18:11:23.437Z,97764.94
2018-12-08T18:13:51.708Z,97761.98
2018-12-08T18:16:20.000Z,97773.97
2018-12-08T18:18:48.571Z,97767.17
2018-12-08T18:21:17.216Z,97763.33
2018-12-08T18:23:46.305Z,97756.38
2018-12-08T18:26:14.798Z,97756.58
2018-12-08T18:28:44.079Z,97752.01
2018-12-08T18:31:13.002Z,97745.61
2018-12-08T18:33:41.253Z,97729.91
2018-12-08T18:36:10.241Z,97727.67
2018-12-08T18:38:38.553Z,97725.33
2018-12-08T18:41:06.832Z,97703.62
2018-12-08T18:43:35.465Z,97692.88
2018-12-08T18:46:03.857Z,97690.47
2018-12-08T18:48:32.608Z,97695.33
2018-12-08T18:51:01.126Z,97694.59
2018-12-08T18:53:29.883Z,97700.72
2018-12-08T18:55:58.258Z,97699.95
2018-12-08T18:58:27.579Z,97697.39
2018-12-08T19:00:56.419Z,97684.00
2018-12-08T19:03:24.843Z,97682.73
2018-12-08T19:05:53.345Z,97665.53
2018-12-08T19:08:21.584Z,97651.48
2018-12-08T19:10:49.912Z,97670.03
2018-12-08T19:13:18.525Z,97665.58
2018-12-08T19:15:47.099Z,97659.54
2018-12-08T19:18:16.516Z,97677.41
2018-12-08T19:20:44.959Z,97647.34
2018-12-08T19:23:13.955Z,97636.95
2018-12-08T19:25:43.307Z,97619.97
2018-12-08T19:28:12.167Z,97607.84
2018-12-08T19:30:41.216Z,97610.87
2018-12-08T19:33:14.476Z,97603.22
2018-12-08T19:35:41.743Z,97603.64
2018-12-08T19:38:11.140Z,97593.16
2018-12-08T19:40:39.498Z,97588.05
2018-12-08T19:43:08.042Z,97585.02
2018-12-08T19:45:37.102Z,97578.84
2018-12-08T19:48:05.929Z,97583.05
2018-12-08T19:50:34.599Z,97563.46
2018-12-08T19:53:03.189Z,97583.05
2018-12-08T19:55:32.247Z,97571.61
2018-12-08T19:58:04.052Z,97568.94
2018-12-08T20:00:33.150Z,97574.45
2018-12-08T20:03:01.961Z,97566.75
2018-12-08T20:05:30.573Z,97552.20
2018-12-08T20:07:58.872Z,97557.31
2018-12-08T20:10:27.200Z,97559.75
2018-12-08T20:12:57.114Z,97562.81
2018-12-08T20:15:25.537Z,97556.41
2018-12-08T20:17:53.885Z,97536.32
2018-12-08T20:20:22.424Z,97525.24
2018-12-08T20:22:51.117Z,97524.19
2018-12-08T20:25:20.276Z,97522.67
2018-12-08T20:27:49.256Z,97528.12
2018-12-08T20:30:17.829Z,97530.68
2018-12-08T20:32:46.189Z,97523.96
2018-12-08T20:35:15.260Z,97517.66
2018-12-08T20:37:43.644Z,97514.63
2018-12-08T20:40:11.951Z,97519.20
2018-12-08T20:42:40.583Z,97503.23
2018-12-08T20:45:08.926Z,97494.13
2018-12-08T20:47:37.197Z,97490.66
2018-12-08T20:50:06.833Z,97490.98
2018-12-08T20:52:35.118Z,97485.53
2018-12-08T20:55:03.903Z,97475.38
2018-12-08T20:57:32.230Z,97473.05
2018-12-08T21:00:00.693Z,97475.83
2018-12-08T21:02:28.919Z,97461.84
2018-12-08T21:04:57.505Z,97464.30
2018-12-08T21:07:26.093Z,97454.30
2018-12-08T21:09:54.378Z,97450.00
2018-12-08T21:12:22.564Z,97436.74
2018-12-08T21:14:51.201Z,97419.73
2018-12-08T21:17:19.940Z,97423.21
2018-12-08T21:19:48.703Z,97422.66
2018-12-08T21:22:17.292Z,97416.03
2018-12-08T21:24:45.941Z,97420.33
2018-12-08T21:27:14.228Z,97418.63
2018-12-08T21:29:42.577Z,97402.56
2018-12-08T21:32:11.109Z,97393.37
2018-12-08T21:34:39.826Z,97383.81
2018-12-08T21:37:08.026Z,97388.01
2018-12-08T21:39:36.509Z,97381.84
2018-12-08T21:42:05.001Z,97371.00
2018-12-08T21:44:33.563Z,97374.08
2018-12-08T21:47:02.185Z,97375.58
2018-12-08T21:49:30.805Z,97365.58
2018-12-08T21:51:59.648Z,97365.09
2018-12-08T21:54:45.605Z,97355.20
2018-12-08T21:57:14.009Z,97351.14
2018-12-08T21:59:42.332Z,97349.37
2018-12-08T22:02:10.601Z,97337.73
2018-12-08T22:04:38.949Z,97332.16
2018-12-08T22:07:07.578Z,97319.52
2018-12-08T22:09:36.195Z,97305.08
2018-12-08T22:12:04.599Z,97279.03
2018-12-08T22:14:35.276Z,97256.66
2018-12-08T22:17:03.461Z,97255.05
2018-12-08T22:19:31.760Z,97261.20
2018-12-08T22:22:00.223Z,97266.34
2018-12-08T22:24:29.873Z,97279.37
2018-12-08T22:26:58.204Z,97275.54
2018-12-08T22:29:26.473Z,97266.11
2018-12-08T22:31:54.992Z,97264.10
2018-12-08T22:34:24.278Z,97253.72
2018-12-08T22:36:52.723Z,97243.58
2018-12-08T22:39:21.037Z,97225.17
2018-12-08T22:41:49.447Z,97217.34
2018-12-08T22:44:17.717Z,97215.14
2018-12-08T22:46:46.054Z,97217.23
2018-12-08T22:49:14.691Z,97212.33
2018-12-08T22:51:43.251Z,97189.69
2018-12-08T22:54:11.629Z,97180.72
2018-12-08T22:56:39.911Z,97181.03
2018-12-08T22:59:09.249Z,97171.52
2018-12-08T23:01:37.576Z,97164.06
2018-12-08T23:04:06.065Z,97165.77
2018-12-08T23:06:34.575Z,97156.64
2018-12-08T23:09:04.154Z,97150.33
2018-12-08T23:11:32.393Z,97148.79
2018-12-08T23:14:01.048Z,97147.11
2018-12-08T23:16:30.510Z,97141.61
2018-12-08T23:18:59.136Z,97127.80
2018-12-08T23:21:27.619Z,97126.60
2018-12-08T23:23:55.888Z,97118.94
2018-12-08T23:26:24.621Z,97099.30
2018-12-08T23:28:52.875Z,97083.70
2018-12-08T23:31:21.355Z,97096.53
2018-12-08T23:33:49.730Z,97090.49
2018-12-08T23:36:18.208Z,97083.46
2018-12-08T23:38:46.429Z,97086.88
2018-12-08T23:41:14.760Z,97099.77
2018-12-08T23:43:43.380Z,97079.48
2018-12-08T23:46:11.690Z,97078.13
2018-12-08T23:48:40.658Z,97067.69
2018-12-08T23:51:11.310Z,97076.06
2018-12-08T23:53:41.628Z,97064.80
2018-12-08T23:56:11.632Z,97066.70
2018-12-08T23:58:43.432Z,97049.02
